Terminal Aerodrome Forecast
Issued by NWS Wilmington, OH

Current Version | Previous Version | Graphics & Text | Print | Product List | Glossary On
Versions: 1 2 3 4 5 6 7 8 9 10 11 12 13 14 15 16 17 18 19 20 21 22 23 24 25 26
000
FTUS41 KILN 282300
TAFCVG
TAF
KCVG 282337Z 0100/0206 09007KT P6SM OVC070
     FM010400 10005KT 5SM -SN BKN025 OVC050
     FM010600 12005KT 6SM BR OVC040
      TEMPO 0106/0109 5SM -FZRA BR OVC025
     FM010900 17005KT 2SM -RAPLSN SCT008 OVC020
     FM011200 18005KT 5SM -RA OVC025
      TEMPO 0114/0118 2SM -RA OVC012
     FM011800 19006KT 5SM -RA OVC018
     FM012100 27006KT 3SM -SN OVC009
     FM020100 30008KT P6SM OVC009=

USA.gov is the U.S. government's official web portal to all federal, state and local government web resources and services.